Time;durP1;ratioP1;P1;durP2;ratioP2;P2;SDS_P1;SDS_P2;PMS_P1;PMS_P2;Temp;Humidity;BMP_temperature;BMP_pressure;BME280_temperature;BME280_humidity;BME280_pressure;Samples;Min_cycle;Max_cycle;Signal;HPM_P1;HPM_P2
2022/02/08 00:00:40;;;;;;;7.10;3.28;;;5.90;99.90;;;;;;5033704;28;20207;-71
2022/02/08 00:03:09;;;;;;;4.22;1.73;;;5.90;99.90;;;;;;5052330;28;20230;-70
2022/02/08 00:05:36;;;;;;;4.00;2.13;;;5.90;99.90;;;;;;5053128;28;20410;-69
2022/02/08 00:08:04;;;;;;;3.60;3.05;;;5.90;99.90;;;;;;5053460;28;20192;-69
2022/02/08 00:10:31;;;;;;;12.88;2.55;;;5.90;99.90;;;;;;5052312;28;20208;-71
2022/02/08 00:12:58;;;;;;;5.95;2.78;;;5.90;99.90;;;;;;5053384;28;20238;-70
2022/02/08 00:15:25;;;;;;;8.10;2.17;;;6.00;99.90;;;;;;5055162;28;20254;-68
2022/02/08 00:17:52;;;;;;;12.02;2.90;;;6.00;99.90;;;;;;5048734;28;20207;-69
2022/02/08 00:20:20;;;;;;;9.50;2.50;;;6.00;99.90;;;;;;5054858;28;20298;-70
2022/02/08 00:22:47;;;;;;;6.35;2.80;;;6.00;99.90;;;;;;5055886;28;20224;-69
2022/02/08 00:25:14;;;;;;;11.07;2.58;;;6.10;99.90;;;;;;5055948;28;20227;-70
2022/02/08 00:27:41;;;;;;;12.25;4.50;;;6.00;99.90;;;;;;5056087;28;20201;-70
2022/02/08 00:30:09;;;;;;;8.13;2.88;;;6.10;99.90;;;;;;5055164;28;20287;-70
2022/02/08 00:32:36;;;;;;;7.65;2.80;;;6.10;99.90;;;;;;5055679;28;20716;-70
2022/02/08 00:35:03;;;;;;;8.32;3.95;;;6.10;99.90;;;;;;5055706;28;20695;-70
2022/02/08 00:37:32;;;;;;;13.32;3.22;;;6.10;99.90;;;;;;5055571;28;20224;-69
2022/02/08 00:39:59;;;;;;;12.05;2.75;;;6.10;99.90;;;;;;5055009;28;20622;-69
2022/02/08 00:42:26;;;;;;;6.85;2.80;;;6.10;99.90;;;;;;5055259;28;20230;-70
2022/02/08 00:44:59;;;;;;;9.07;3.17;;;6.10;99.90;;;;;;5055428;28;20593;-70
2022/02/08 00:47:31;;;;;;;7.47;2.75;;;6.20;99.90;;;;;;5037172;28;20251;-70
2022/02/08 00:50:06;;;;;;;10.95;2.92;;;6.10;99.90;;;;;;5058808;28;20201;-70
2022/02/08 00:52:35;;;;;;;11.32;4.13;;;6.20;99.90;;;;;;5055183;28;20308;-69
2022/02/08 00:55:04;;;;;;;12.88;4.53;;;6.20;99.90;;;;;;5055965;28;20573;-69
2022/02/08 00:57:31;;;;;;;4.78;2.40;;;6.20;99.90;;;;;;5055085;28;20215;-70
2022/02/08 00:59:58;;;;;;;8.05;2.47;;;6.20;99.90;;;;;;5054556;28;20235;-70
2022/02/08 01:02:26;;;;;;;10.70;4.88;;;6.20;99.90;;;;;;5055011;28;20249;-71
2022/02/08 01:04:56;;;;;;;14.38;4.07;;;6.20;99.90;;;;;;5048245;28;20629;-72
2022/02/08 01:07:23;;;;;;;14.68;3.67;;;6.20;99.90;;;;;;5055527;28;20197;-70
2022/02/08 01:09:57;;;;;;;10.02;3.58;;;6.30;99.90;;;;;;5056068;28;20226;-70
2022/02/08 01:12:25;;;;;;;6.90;3.00;;;6.30;99.90;;;;;;5056390;28;20275;-70
2022/02/08 01:14:54;;;;;;;7.03;4.25;;;6.30;99.90;;;;;;5055581;28;20236;-70
2022/02/08 01:17:22;;;;;;;7.50;3.20;;;6.30;99.90;;;;;;5054974;28;20308;-69
2022/02/08 01:19:54;;;;;;;10.55;3.25;;;6.30;99.90;;;;;;5054235;28;20212;-71
2022/02/08 01:22:21;;;;;;;10.93;4.15;;;6.30;99.90;;;;;;5054796;28;20283;-70
2022/02/08 01:24:50;;;;;;;11.00;4.15;;;6.50;99.90;;;;;;5054760;28;20213;-70
2022/02/08 01:27:23;;;;;;;10.35;4.93;;;6.30;99.90;;;;;;5054694;28;20219;-68
2022/02/08 01:29:57;;;;;;;8.18;3.47;;;6.40;99.90;;;;;;5054109;28;20197;-69
2022/02/08 01:32:50;;;;;;;12.02;4.75;;;6.40;99.90;;;;;;5036418;28;20319;-69
2022/02/08 01:38:05;;;;;;;9.05;4.63;;;6.40;99.90;;;;;;5064746;28;20195;-71
2022/02/08 01:40:48;;;;;;;8.65;5.00;;;6.40;99.90;;;;;;5046213;28;20734;-71
2022/02/08 01:46:07;;;;;;;8.98;5.07;;;6.30;99.90;;;;;;5049669;28;20281;-71
2022/02/08 01:48:47;;;;;;;15.93;5.70;;;6.20;99.90;;;;;;5036278;28;20205;-70
2022/02/08 01:51:14;;;;;;;12.15;5.78;;;6.20;99.90;;;;;;5030234;28;20208;-69
2022/02/08 01:53:41;;;;;;;14.90;5.35;;;6.20;99.90;;;;;;5054982;28;20220;-69
2022/02/08 01:56:08;;;;;;;8.63;5.90;;;6.20;99.90;;;;;;5055068;28;20687;-71
2022/02/08 01:58:37;;;;;;;16.23;5.35;;;6.10;99.90;;;;;;5047639;28;20293;-70
2022/02/08 02:01:04;;;;;;;13.63;6.40;;;6.20;99.90;;;;;;5054746;28;20200;-69
2022/02/08 02:03:32;;;;;;;8.20;5.32;;;6.10;99.90;;;;;;5055178;28;20224;-68
2022/02/08 02:05:59;;;;;;;12.15;5.60;;;6.20;99.90;;;;;;5051472;28;20205;-69
2022/02/08 02:08:26;;;;;;;10.00;5.05;;;6.20;99.90;;;;;;5058368;28;20240;-71
2022/02/08 02:10:53;;;;;;;11.77;6.10;;;6.20;99.90;;;;;;5053599;28;20280;-70
2022/02/08 02:13:36;;;;;;;20.88;8.30;;;6.20;99.90;;;;;;5053982;28;20586;-69
2022/02/08 02:16:06;;;;;;;18.00;7.28;;;6.20;99.90;;;;;;5053763;28;20221;-69
2022/02/08 02:18:33;;;;;;;15.98;8.02;;;6.20;99.90;;;;;;5053374;28;20201;-69
2022/02/08 02:21:02;;;;;;;19.60;8.30;;;6.20;99.90;;;;;;5053271;28;20225;-69
2022/02/08 02:23:30;;;;;;;17.50;8.32;;;6.20;99.90;;;;;;5053845;28;20224;-70
2022/02/08 02:25:58;;;;;;;20.35;9.45;;;6.40;99.90;;;;;;5053757;28;20594;-70
2022/02/08 02:28:26;;;;;;;13.25;10.40;;;6.20;99.90;;;;;;5053699;28;20203;-69
2022/02/08 02:30:53;;;;;;;11.77;7.68;;;6.20;99.90;;;;;;5048244;28;20227;-71
2022/02/08 02:33:20;;;;;;;17.23;9.95;;;6.30;99.90;;;;;;5053221;28;20303;-70
2022/02/08 02:35:48;;;;;;;27.70;8.90;;;6.20;99.90;;;;;;5067592;28;20204;-70
2022/02/08 02:38:32;;;;;;;13.07;8.23;;;6.30;99.90;;;;;;5053059;28;20209;-70
2022/02/08 02:41:00;;;;;;;21.23;11.00;;;6.30;99.90;;;;;;5036006;28;20288;-71
2022/02/08 02:43:28;;;;;;;16.90;9.77;;;6.30;99.90;;;;;;5043824;28;20228;-70
2022/02/08 02:45:58;;;;;;;19.33;9.95;;;6.30;99.90;;;;;;5053357;28;20188;-71
2022/02/08 02:48:31;;;;;;;19.52;10.75;;;6.40;99.90;;;;;;5053475;28;20255;-70
2022/02/08 02:50:58;;;;;;;22.17;11.70;;;6.40;99.90;;;;;;5052671;28;20781;-69
2022/02/08 02:53:37;;;;;;;24.63;11.13;;;6.40;99.90;;;;;;5041345;28;20226;-70
2022/02/08 02:56:06;;;;;;;24.48;11.00;;;6.40;99.90;;;;;;5042918;28;20202;-70
2022/02/08 02:58:35;;;;;;;20.35;11.23;;;6.50;99.90;;;;;;5053785;28;20204;-71
2022/02/08 03:01:21;;;;;;;21.27;12.13;;;6.50;99.90;;;;;;5052006;28;20195;-71
2022/02/08 03:04:02;;;;;;;19.30;12.50;;;6.50;99.90;;;;;;5048710;28;20537;-69
2022/02/08 03:17:40;;;;;;;26.30;14.38;;;6.50;99.90;;;;;;5053169;28;20331;-69
2022/02/08 03:20:08;;;;;;;28.10;15.88;;;6.60;99.90;;;;;;5028116;28;20201;-70
2022/02/08 03:22:35;;;;;;;37.33;18.13;;;6.60;99.90;;;;;;5052460;28;20536;-70
2022/02/08 03:25:02;;;;;;;24.65;15.60;;;6.50;99.90;;;;;;5052649;28;20197;-70
2022/02/08 03:27:30;;;;;;;25.90;17.63;;;6.50;99.90;;;;;;5052660;28;20583;-70
2022/02/08 03:29:57;;;;;;;36.25;19.23;;;6.50;99.90;;;;;;5052576;28;20252;-70
2022/02/08 03:32:24;;;;;;;45.65;19.40;;;6.50;99.90;;;;;;5053084;28;20249;-70
2022/02/08 03:34:51;;;;;;;36.75;21.08;;;6.60;99.90;;;;;;5045885;28;20248;-69
2022/02/08 03:37:19;;;;;;;37.15;20.23;;;6.50;99.90;;;;;;5052654;28;20581;-70
2022/02/08 03:39:56;;;;;;;42.88;21.85;;;6.50;99.90;;;;;;5051642;28;20209;-70
2022/02/08 03:42:30;;;;;;;35.08;19.60;;;6.50;99.90;;;;;;5034558;28;20224;-71
2022/02/08 03:44:59;;;;;;;52.28;22.80;;;6.40;99.90;;;;;;5027472;28;20641;-70
2022/02/08 03:47:26;;;;;;;46.05;22.98;;;6.40;99.90;;;;;;5052995;28;20209;-71
2022/02/08 03:49:53;;;;;;;35.72;21.55;;;6.50;99.90;;;;;;5036281;28;20248;-70
2022/02/08 03:52:23;;;;;;;39.83;22.13;;;6.50;99.90;;;;;;5052846;28;20304;-70
2022/02/08 03:54:50;;;;;;;40.75;20.73;;;6.50;99.90;;;;;;5054192;28;20547;-70
2022/02/08 03:57:17;;;;;;;45.63;22.77;;;6.50;99.90;;;;;;5057588;28;20214;-70
2022/02/08 03:59:44;;;;;;;40.55;22.17;;;6.50;99.90;;;;;;5056565;28;20279;-71
2022/02/08 04:02:28;;;;;;;39.70;23.45;;;6.50;99.90;;;;;;5060241;28;20602;-70
2022/02/08 04:04:59;;;;;;;35.97;22.25;;;6.50;99.90;;;;;;5057478;28;20695;-70
2022/02/08 04:07:32;;;;;;;41.05;22.73;;;6.60;99.90;;;;;;5056766;28;20209;-70
2022/02/08 04:10:03;;;;;;;37.60;19.92;;;6.50;99.90;;;;;;5037760;28;20590;-70
2022/02/08 04:12:39;;;;;;;38.03;22.23;;;6.50;99.90;;;;;;5054829;28;20266;-71
2022/02/08 04:15:32;;;;;;;35.80;23.27;;;6.60;99.90;;;;;;5055868;28;20639;-70
2022/02/08 04:32:11;;;;;;;38.30;22.20;;;6.70;99.90;;;;;;5053773;28;20225;-70
2022/02/08 04:34:54;;;;;;;42.78;23.50;;;6.70;99.90;;;;;;5055816;28;20201;-71
2022/02/08 04:40:33;;;;;;;43.13;24.05;;;6.80;99.90;;;;;;5054858;28;20568;-72
2022/02/08 04:45:47;;;;;;;37.90;22.83;;;6.90;99.90;;;;;;5053001;28;20190;-70
2022/02/08 04:48:42;;;;;;;33.50;22.50;;;6.90;99.90;;;;;;5057659;28;20257;-70
2022/02/08 04:51:22;;;;;;;39.55;21.83;;;6.90;99.90;;;;;;5048980;28;20198;-69
2022/02/08 04:53:57;;;;;;;36.40;22.45;;;7.00;99.90;;;;;;5041720;28;20226;-70
2022/02/08 04:56:35;;;;;;;38.10;20.85;;;7.00;99.90;;;;;;5037312;28;20204;-70
2022/02/08 04:59:17;;;;;;;37.55;20.20;;;7.00;99.90;;;;;;5039011;28;20222;-70
2022/02/08 05:02:01;;;;;;;37.47;20.52;;;7.00;99.90;;;;;;5054503;28;20223;-71
2022/02/08 05:27:01;;;;;;;36.92;22.75;;;7.30;99.90;;;;;;5054286;28;20217;-70
2022/02/08 05:35:27;;;;;;;43.00;27.60;;;7.40;99.90;;;;;;5050331;28;20553;-70
2022/02/08 05:41:12;;;;;;;45.88;26.92;;;7.50;99.90;;;;;;5022809;28;20200;-70
2022/02/08 05:43:44;;;;;;;47.65;24.80;;;7.50;99.90;;;;;;5053731;28;20228;-70
2022/02/08 05:49:05;;;;;;;65.65;29.20;;;7.60;99.90;;;;;;5045454;28;20538;-69
2022/02/08 05:51:56;;;;;;;56.78;27.35;;;7.60;99.90;;;;;;5035412;28;20226;-71
2022/02/08 05:54:22;;;;;;;40.10;24.58;;;7.70;99.90;;;;;;5043249;28;20605;-70
2022/02/08 05:56:53;;;;;;;43.10;25.85;;;7.70;99.90;;;;;;5053056;28;20187;-69
2022/02/08 05:59:21;;;;;;;46.25;28.17;;;7.70;99.90;;;;;;5053823;28;20208;-70
2022/02/08 06:01:48;;;;;;;45.72;27.40;;;7.80;99.90;;;;;;5052537;28;20234;-70
2022/02/08 06:04:15;;;;;;;51.47;26.75;;;7.80;99.90;;;;;;5053889;28;20199;-70
2022/02/08 06:06:42;;;;;;;42.45;25.35;;;7.80;99.90;;;;;;5053068;28;20203;-71
2022/02/08 06:09:09;;;;;;;53.90;28.13;;;7.90;99.90;;;;;;5053012;28;20708;-69
2022/02/08 06:11:38;;;;;;;52.25;27.83;;;7.90;99.90;;;;;;5052871;28;20221;-72
2022/02/08 06:14:07;;;;;;;43.20;24.50;;;8.00;99.90;;;;;;5053219;28;20292;-70
2022/02/08 06:16:36;;;;;;;38.58;25.08;;;8.00;99.90;;;;;;5053500;28;20253;-71
2022/02/08 06:19:04;;;;;;;44.30;25.15;;;8.00;99.90;;;;;;5053412;28;20243;-71
2022/02/08 06:21:32;;;;;;;41.95;23.77;;;8.10;99.90;;;;;;5052665;28;21200;-70
2022/02/08 06:23:59;;;;;;;38.63;24.80;;;8.10;99.90;;;;;;5054020;28;20606;-70
2022/02/08 06:26:27;;;;;;;42.78;23.92;;;8.20;99.90;;;;;;5053326;28;20294;-71
2022/02/08 06:29:04;;;;;;;34.00;21.80;;;8.20;99.90;;;;;;5045491;28;20626;-71
2022/02/08 06:31:32;;;;;;;40.88;24.70;;;8.30;99.90;;;;;;5035267;28;20312;-71
2022/02/08 06:34:01;;;;;;;41.40;22.08;;;8.30;99.90;;;;;;5053919;28;20261;-70
2022/02/08 06:36:28;;;;;;;37.97;21.95;;;8.40;99.90;;;;;;5056228;28;20290;-71
2022/02/08 06:38:55;;;;;;;37.60;20.83;;;8.50;99.90;;;;;;5046468;28;20211;-71
2022/02/08 06:41:22;;;;;;;37.42;22.83;;;8.50;99.90;;;;;;5047798;28;20287;-70
2022/02/08 06:43:49;;;;;;;33.80;22.45;;;8.50;99.90;;;;;;5055621;28;20529;-70
2022/02/08 06:46:16;;;;;;;32.17;22.30;;;8.60;99.90;;;;;;5054054;28;20191;-71
2022/02/08 06:48:44;;;;;;;43.95;21.83;;;8.70;99.90;;;;;;5053077;28;20495;-72
2022/02/08 06:51:11;;;;;;;33.38;22.02;;;8.70;99.90;;;;;;5052078;28;20716;-70
2022/02/08 06:53:38;;;;;;;42.67;20.42;;;8.70;99.90;;;;;;5046324;28;20215;-71
2022/02/08 06:56:06;;;;;;;38.13;23.92;;;8.80;99.90;;;;;;5053566;28;20265;-72
2022/02/08 06:58:46;;;;;;;35.85;23.73;;;8.80;99.90;;;;;;5052898;28;20297;-71
2022/02/08 07:01:13;;;;;;;32.22;21.17;;;8.80;99.90;;;;;;5052403;28;20203;-72
2022/02/08 07:03:41;;;;;;;44.65;22.15;;;8.80;99.90;;;;;;5055197;28;20563;-75
2022/02/08 07:06:09;;;;;;;27.45;20.00;;;8.90;99.90;;;;;;5053016;28;20219;-71
2022/02/08 07:08:36;;;;;;;35.28;21.77;;;8.90;99.90;;;;;;5044213;28;20567;-70
2022/02/08 07:11:03;;;;;;;31.98;21.27;;;9.00;99.90;;;;;;5051632;28;20723;-71
2022/02/08 07:13:30;;;;;;;38.60;21.23;;;9.00;99.90;;;;;;5052747;28;20306;-71
2022/02/08 07:15:57;;;;;;;47.65;21.73;;;9.10;99.90;;;;;;5053032;28;20595;-71
2022/02/08 07:18:24;;;;;;;33.88;19.60;;;9.10;99.90;;;;;;5052136;28;20301;-70
2022/02/08 07:20:51;;;;;;;29.08;21.55;;;9.10;99.90;;;;;;5046448;28;20211;-70
2022/02/08 07:23:19;;;;;;;24.48;17.45;;;9.00;99.90;;;;;;5052371;28;20223;-69
2022/02/08 07:25:46;;;;;;;32.78;18.58;;;9.10;99.90;;;;;;5053417;28;20291;-67
2022/02/08 07:28:13;;;;;;;33.53;18.23;;;9.10;99.90;;;;;;5052628;28;20199;-70
2022/02/08 07:30:43;;;;;;;29.27;18.83;;;9.20;99.90;;;;;;5047253;28;20721;-70
2022/02/08 07:33:10;;;;;;;23.45;16.33;;;9.20;99.90;;;;;;5051906;28;20693;-70
2022/02/08 07:35:48;;;;;;;29.95;19.10;;;9.20;99.90;;;;;;5054579;28;20548;-69
2022/02/08 07:38:22;;;;;;;27.42;16.02;;;9.30;99.90;;;;;;5037091;28;20677;-71
2022/02/08 07:43:35;;;;;;;23.60;15.00;;;9.30;99.90;;;;;;5057204;28;20230;-69
2022/02/08 07:46:02;;;;;;;31.88;18.40;;;9.30;99.90;;;;;;5057008;28;20196;-69
2022/02/08 07:48:28;;;;;;;21.30;15.77;;;9.30;99.90;;;;;;5057725;28;20222;-69
2022/02/08 07:50:56;;;;;;;30.98;15.13;;;9.40;99.90;;;;;;5057179;28;20585;-68
2022/02/08 07:53:27;;;;;;;31.25;17.17;;;9.40;99.90;;;;;;5057667;28;20262;-69
2022/02/08 07:55:56;;;;;;;29.20;16.63;;;9.40;99.90;;;;;;5057101;28;20661;-68
2022/02/08 07:58:24;;;;;;;23.10;17.42;;;9.50;99.90;;;;;;5055722;28;20239;-69
2022/02/08 08:00:52;;;;;;;25.73;13.43;;;9.60;99.90;;;;;;5052377;28;20203;-69
2022/02/08 08:03:19;;;;;;;18.45;12.90;;;9.60;99.90;;;;;;5051081;28;20228;-68
2022/02/08 08:05:47;;;;;;;21.02;13.43;;;9.70;99.90;;;;;;5055358;28;20210;-68
2022/02/08 08:08:16;;;;;;;21.95;13.40;;;9.70;99.90;;;;;;5055908;28;20190;-70
2022/02/08 08:10:46;;;;;;;17.20;10.98;;;9.70;99.90;;;;;;5054780;28;20254;-68
2022/02/08 08:13:18;;;;;;;20.17;14.65;;;9.70;99.90;;;;;;5054711;28;20227;-69
2022/02/08 08:15:49;;;;;;;18.02;11.38;;;9.80;99.90;;;;;;5055809;28;20195;-69
2022/02/08 08:18:26;;;;;;;15.02;10.30;;;9.90;99.90;;;;;;5055207;28;20304;-69
2022/02/08 08:20:53;;;;;;;24.67;11.30;;;9.90;99.90;;;;;;5037199;28;20207;-70
2022/02/08 08:23:20;;;;;;;19.85;10.13;;;9.90;99.90;;;;;;5055751;28;20218;-70
2022/02/08 08:25:49;;;;;;;17.63;10.85;;;9.90;99.90;;;;;;5057023;28;20203;-69
2022/02/08 08:28:17;;;;;;;18.50;11.40;;;9.90;99.90;;;;;;5056526;28;20619;-69
2022/02/08 08:30:44;;;;;;;19.35;11.18;;;10.00;99.90;;;;;;5051603;28;20290;-70
2022/02/08 08:33:11;;;;;;;20.42;10.07;;;9.90;99.90;;;;;;5055938;28;20222;-71
2022/02/08 08:35:40;;;;;;;16.23;9.10;;;9.90;99.90;;;;;;5054861;28;20235;-71
2022/02/08 08:38:09;;;;;;;17.63;9.25;;;10.00;99.90;;;;;;5056055;28;20580;-70
2022/02/08 08:40:47;;;;;;;14.98;8.85;;;9.90;99.90;;;;;;5054630;28;20560;-74
2022/02/08 08:49:03;;;;;;;12.38;7.15;;;10.10;99.90;;;;;;5053347;28;20197;-70
2022/02/08 08:51:38;;;;;;;21.65;9.82;;;10.10;99.90;;;;;;5047645;28;20656;-70
2022/02/08 08:54:07;;;;;;;14.55;7.93;;;10.10;99.90;;;;;;5048019;28;20266;-72
2022/02/08 08:56:36;;;;;;;13.38;8.55;;;10.20;99.90;;;;;;5054104;28;20292;-71
2022/02/08 08:59:04;;;;;;;19.33;8.00;;;10.20;99.90;;;;;;5055349;28;20580;-70
2022/02/08 09:01:32;;;;;;;14.27;8.70;;;10.10;99.90;;;;;;5054165;28;20294;-70
2022/02/08 09:03:59;;;;;;;26.05;8.98;;;10.10;99.90;;;;;;5055338;28;20257;-70
2022/02/08 09:06:27;;;;;;;12.40;6.97;;;10.10;99.90;;;;;;5055102;28;20234;-71
2022/02/08 09:08:54;;;;;;;15.98;7.80;;;10.10;99.90;;;;;;5055281;28;20200;-71
2022/02/08 09:11:38;;;;;;;13.18;7.32;;;10.20;99.90;;;;;;5054086;28;20203;-72
2022/02/08 09:14:10;;;;;;;10.82;7.47;;;10.20;99.90;;;;;;5055071;28;20227;-70
2022/02/08 09:16:44;;;;;;;12.68;7.00;;;10.20;99.90;;;;;;5054353;28;20652;-70
2022/02/08 09:24:58;;;;;;;17.02;7.70;;;10.20;99.90;;;;;;5146866;27;20566;-70
2022/02/08 09:30:14;;;;;;;9.52;6.00;;;10.30;99.90;;;;;;5139125;27;20211;-71
2022/02/08 09:32:44;;;;;;;8.85;5.72;;;10.20;99.90;;;;;;5137160;27;20222;-71
2022/02/08 09:35:14;;;;;;;10.80;7.05;;;10.20;99.90;;;;;;5129916;27;20197;-71
2022/02/08 09:37:43;;;;;;;11.57;6.10;;;10.20;99.90;;;;;;5135851;27;20205;-69
2022/02/08 09:40:12;;;;;;;14.93;8.52;;;10.20;99.90;;;;;;5128543;27;20571;-69
2022/02/08 09:42:41;;;;;;;17.17;6.35;;;10.20;99.90;;;;;;5140085;27;20216;-70
2022/02/08 09:45:20;;;;;;;11.60;6.18;;;10.20;99.90;;;;;;5137064;27;20249;-70
2022/02/08 09:47:53;;;;;;;10.43;5.55;;;10.20;99.90;;;;;;5140324;27;20200;-70
2022/02/08 09:50:29;;;;;;;11.80;5.68;;;10.20;99.90;;;;;;5131033;28;20236;-70
2022/02/08 09:53:00;;;;;;;13.85;6.13;;;10.20;99.90;;;;;;5131343;28;20235;-71
2022/02/08 09:55:36;;;;;;;12.70;6.55;;;10.10;99.90;;;;;;5130820;28;20198;-71
2022/02/08 09:58:04;;;;;;;16.40;6.78;;;10.20;99.90;;;;;;5120976;27;20206;-71
2022/02/08 10:00:41;;;;;;;13.57;5.35;;;10.10;99.90;;;;;;5134138;27;20660;-70
2022/02/08 10:03:09;;;;;;;19.60;6.05;;;10.10;99.90;;;;;;5140712;27;20305;-70
2022/02/08 10:05:43;;;;;;;11.68;5.43;;;10.20;99.90;;;;;;5141213;27;20192;-70
2022/02/08 10:08:13;;;;;;;10.23;4.90;;;10.20;99.90;;;;;;5151876;27;20274;-71
2022/02/08 10:10:44;;;;;;;13.27;5.13;;;10.10;99.90;;;;;;5148338;27;20559;-71
2022/02/08 10:13:46;;;;;;;14.18;5.88;;;10.10;99.90;;;;;;5142083;27;20245;-69
2022/02/08 10:19:27;;;;;;;15.02;4.63;;;10.10;99.90;;;;;;5116030;28;20204;-70
2022/02/08 10:22:04;;;;;;;8.15;5.05;;;10.00;99.90;;;;;;5137651;27;20220;-71
2022/02/08 10:24:36;;;;;;;19.08;6.60;;;10.00;99.90;;;;;;5147225;27;20648;-70
2022/02/08 10:27:19;;;;;;;18.85;5.43;;;10.10;99.90;;;;;;5138486;27;20247;-70
2022/02/08 10:30:09;;;;;;;10.38;5.13;;;10.00;99.90;;;;;;5143740;27;20566;-70
2022/02/08 10:38:14;;;;;;;11.55;5.78;;;10.00;99.90;;;;;;5053279;28;20215;-72
2022/02/08 10:40:43;;;;;;;7.75;4.60;;;10.00;99.90;;;;;;5052596;28;20695;-71
2022/02/08 10:43:16;;;;;;;17.40;6.20;;;10.00;99.90;;;;;;5084303;27;20707;-71
2022/02/08 10:45:44;;;;;;;8.77;4.45;;;10.00;99.90;;;;;;5116864;27;20221;-70
2022/02/08 10:48:14;;;;;;;9.48;5.47;;;9.90;99.90;;;;;;5129930;27;20203;-70
2022/02/08 10:50:48;;;;;;;17.45;7.75;;;9.90;99.90;;;;;;5122056;27;20524;-71
2022/02/08 10:53:16;;;;;;;10.63;5.43;;;9.80;99.90;;;;;;5129992;27;20217;-71
2022/02/08 10:55:50;;;;;;;13.50;5.40;;;9.80;99.90;;;;;;5132347;27;20197;-70
2022/02/08 10:58:25;;;;;;;9.80;5.50;;;9.80;99.90;;;;;;5124872;27;20575;-70
2022/02/08 11:00:59;;;;;;;10.85;6.18;;;9.80;99.90;;;;;;5128132;27;20567;-70
2022/02/08 11:03:35;;;;;;;14.18;5.47;;;9.80;99.90;;;;;;5114485;28;20324;-70
2022/02/08 11:06:15;;;;;;;15.00;4.55;;;9.90;99.90;;;;;;5117324;27;20354;-71
2022/02/08 11:09:03;;;;;;;11.82;6.35;;;9.80;99.90;;;;;;5124510;27;20285;-71
2022/02/08 11:11:47;;;;;;;9.55;4.68;;;9.80;99.90;;;;;;5129337;27;20316;-71
2022/02/08 11:17:43;;;;;;;12.80;5.20;;;9.80;99.90;;;;;;5122183;27;20196;-71
2022/02/08 11:20:19;;;;;;;11.55;4.45;;;9.90;99.90;;;;;;5121429;27;20216;-71
2022/02/08 11:22:53;;;;;;;15.77;5.30;;;9.90;99.90;;;;;;5124191;27;20213;-72
2022/02/08 11:25:25;;;;;;;16.45;6.50;;;9.90;99.90;;;;;;5123498;27;20197;-70
2022/02/08 11:28:05;;;;;;;8.68;5.38;;;10.00;99.90;;;;;;5133810;27;20292;-71
2022/02/08 11:30:41;;;;;;;11.43;5.68;;;10.00;99.90;;;;;;5131358;27;20234;-70
2022/02/08 11:33:34;;;;;;;8.90;3.33;;;10.10;99.90;;;;;;5126941;27;20304;-71
2022/02/08 11:44:48;;;;;;;9.52;3.80;;;10.20;99.90;;;;;;5114588;27;20197;-71
2022/02/08 11:47:48;;;;;;;9.77;3.60;;;10.20;99.90;;;;;;5120335;27;20203;-72
2022/02/08 11:50:42;;;;;;;12.00;5.10;;;10.20;99.90;;;;;;5115480;27;20198;-71
2022/02/08 11:53:25;;;;;;;7.20;4.35;;;10.20;99.90;;;;;;5119183;27;20282;-71
2022/02/08 11:59:17;;;;;;;10.48;4.03;;;10.30;99.90;;;;;;5132115;27;20252;-70
2022/02/08 12:02:04;;;;;;;18.98;5.72;;;10.40;99.90;;;;;;5131236;27;20229;-70
2022/02/08 12:04:46;;;;;;;13.30;4.63;;;10.40;99.90;;;;;;5130748;27;20206;-70
2022/02/08 12:07:18;;;;;;;13.85;4.25;;;10.40;99.90;;;;;;5112950;27;20202;-70
2022/02/08 12:09:52;;;;;;;7.90;4.45;;;10.50;99.90;;;;;;5128083;27;20201;-70
2022/02/08 12:32:32;;;;;;;9.82;3.88;;;10.40;99.90;;;;;;5052388;28;20298;-71
2022/02/08 12:55:10;;;;;;;13.27;4.85;;;10.60;99.90;;;;;;5129809;27;20675;-70
2022/02/08 12:57:46;;;;;;;8.45;5.35;;;10.70;99.90;;;;;;5121716;27;20213;-70
2022/02/08 13:00:28;;;;;;;22.40;3.65;;;10.60;99.90;;;;;;5128158;27;20205;-70
2022/02/08 13:03:18;;;;;;;11.02;5.53;;;10.60;99.90;;;;;;5125396;27;20307;-70
2022/02/08 13:20:13;;;;;;;13.63;5.32;;;10.60;99.90;;;;;;5118252;27;20245;-71
2022/02/08 14:01:43;;;;;;;5.72;4.15;;;10.90;99.90;;;;;;5125495;27;20575;-72
2022/02/08 14:07:03;;;;;;;6.85;5.22;;;10.90;99.90;;;;;;5118352;27;20713;-72
2022/02/08 14:09:45;;;;;;;8.85;3.85;;;10.90;99.90;;;;;;5129957;27;20251;-72
2022/02/08 14:15:25;;;;;;;17.10;7.53;;;10.90;99.90;;;;;;5127535;27;20218;-72
2022/02/08 14:18:05;;;;;;;8.07;3.15;;;10.90;99.90;;;;;;5126028;27;20197;-70
2022/02/08 15:08:00;;;;;;;17.90;7.72;;;10.70;99.90;;;;;;5131843;27;20209;-71
2022/02/08 15:10:35;;;;;;;9.52;6.03;;;10.60;99.90;;;;;;5116376;27;20212;-70
2022/02/08 15:13:03;;;;;;;19.67;7.20;;;10.60;99.90;;;;;;5128160;27;20213;-70
2022/02/08 15:15:38;;;;;;;14.35;5.45;;;10.60;99.90;;;;;;5131890;27;20209;-73
2022/02/08 15:18:05;;;;;;;13.77;5.30;;;10.60;99.90;;;;;;5116333;27;20217;-71
2022/02/08 15:20:33;;;;;;;12.60;5.05;;;10.60;99.90;;;;;;5124476;27;20209;-71
2022/02/08 15:23:03;;;;;;;8.38;4.20;;;10.60;99.90;;;;;;5122513;27;20221;-72
2022/02/08 15:25:31;;;;;;;7.97;4.88;;;10.60;99.90;;;;;;5114070;27;20661;-70
2022/02/08 15:28:02;;;;;;;12.65;5.68;;;10.60;99.90;;;;;;5117911;27;20206;-72
2022/02/08 15:30:30;;;;;;;10.57;5.50;;;10.50;99.90;;;;;;5125630;27;20201;-70
2022/02/08 15:32:56;;;;;;;9.27;6.53;;;10.50;99.90;;;;;;5131515;27;20332;-71
2022/02/08 15:35:24;;;;;;;9.15;5.20;;;10.50;99.90;;;;;;5125842;27;20282;-71
2022/02/08 15:37:52;;;;;;;7.65;4.97;;;10.40;99.90;;;;;;5130280;27;20294;-71
2022/02/08 15:40:20;;;;;;;8.65;5.95;;;10.40;99.90;;;;;;5127354;27;20224;-71
2022/02/08 15:42:48;;;;;;;12.18;5.60;;;10.40;99.90;;;;;;5122235;27;20222;-71
2022/02/08 15:45:22;;;;;;;11.27;5.90;;;10.30;99.90;;;;;;5122636;27;20292;-70
2022/02/08 15:47:50;;;;;;;9.27;6.00;;;10.30;99.90;;;;;;5129641;27;20205;-70
2022/02/08 15:50:22;;;;;;;13.32;6.32;;;10.30;99.90;;;;;;5122922;27;20384;-72
2022/02/08 15:53:14;;;;;;;8.77;5.97;;;10.30;99.90;;;;;;5127189;27;20608;-71
2022/02/08 15:55:52;;;;;;;11.00;5.70;;;10.40;99.90;;;;;;5124270;27;20250;-71
2022/02/08 15:58:26;;;;;;;6.32;4.15;;;10.50;99.90;;;;;;5120402;27;20219;-71
2022/02/08 16:01:07;;;;;;;9.40;6.15;;;10.40;99.90;;;;;;5112493;28;20652;-71
2022/02/08 16:09:09;;;;;;;10.55;5.65;;;10.40;99.90;;;;;;5117241;27;20626;-71
2022/02/08 16:14:41;;;;;;;5.97;4.43;;;10.30;99.90;;;;;;5104661;27;20203;-71
2022/02/08 16:17:21;;;;;;;13.48;6.10;;;10.30;99.90;;;;;;5122230;27;20262;-69
2022/02/08 16:20:03;;;;;;;7.72;5.55;;;10.30;99.90;;;;;;5132599;27;20569;-69
2022/02/08 16:25:34;;;;;;;10.73;6.28;;;10.40;99.90;;;;;;5122312;27;20194;-70
2022/02/08 16:28:17;;;;;;;8.05;6.53;;;10.40;99.90;;;;;;5112210;28;20204;-72
2022/02/08 16:53:02;;;;;;;13.73;6.53;;;10.50;99.90;;;;;;5125271;27;20323;-72
2022/02/08 16:55:44;;;;;;;6.40;5.35;;;10.60;99.90;;;;;;5130109;27;20209;-70
2022/02/08 16:58:24;;;;;;;12.30;6.47;;;10.50;99.90;;;;;;5128574;27;20313;-71
2022/02/08 17:00:55;;;;;;;12.88;5.97;;;10.50;99.90;;;;;;5114343;27;20223;-71
2022/02/08 17:03:27;;;;;;;11.25;5.38;;;10.40;99.90;;;;;;5126245;27;20294;-71
2022/02/08 17:05:54;;;;;;;11.77;5.60;;;10.50;99.90;;;;;;5112704;27;20648;-71
2022/02/08 17:08:23;;;;;;;7.15;5.15;;;10.50;99.90;;;;;;5118675;27;20197;-70
2022/02/08 17:10:52;;;;;;;16.42;5.95;;;10.60;99.90;;;;;;5128105;27;20197;-71
2022/02/08 17:13:36;;;;;;;11.30;6.70;;;10.60;99.90;;;;;;5133169;27;20295;-71
2022/02/08 17:16:17;;;;;;;9.27;6.10;;;10.60;99.90;;;;;;5111219;28;20657;-71
2022/02/08 17:47:30;;;;;;;17.88;9.77;;;10.30;99.90;;;;;;5133348;27;20293;-72
2022/02/08 17:49:59;;;;;;;20.23;10.02;;;10.30;99.90;;;;;;5120312;27;20223;-70
2022/02/08 17:52:27;;;;;;;14.13;10.43;;;10.30;99.90;;;;;;5127761;27;20220;-70
2022/02/08 17:54:54;;;;;;;22.15;10.20;;;10.30;99.90;;;;;;5109633;28;20651;-71
2022/02/08 17:57:21;;;;;;;15.02;10.50;;;10.20;99.90;;;;;;5126315;27;20204;-70
2022/02/08 17:59:49;;;;;;;21.58;11.38;;;10.30;99.90;;;;;;5128712;27;20197;-72
2022/02/08 18:02:17;;;;;;;14.98;10.13;;;10.20;99.90;;;;;;5125079;27;20282;-79
2022/02/08 18:04:46;;;;;;;25.45;13.05;;;10.20;99.90;;;;;;5123846;27;20282;-75
2022/02/08 18:07:19;;;;;;;19.42;12.55;;;10.20;99.90;;;;;;5114655;28;20663;-75
2022/02/08 18:09:46;;;;;;;14.57;10.57;;;10.20;99.90;;;;;;5127250;27;20209;-77
2022/02/08 18:12:13;;;;;;;22.13;12.15;;;10.20;99.90;;;;;;5128735;27;20239;-77
2022/02/08 18:14:43;;;;;;;16.45;12.30;;;10.20;99.90;;;;;;5134302;27;20246;-74
2022/02/08 18:17:13;;;;;;;17.15;12.68;;;10.10;99.90;;;;;;5127954;27;20282;-74
2022/02/08 18:19:48;;;;;;;35.22;13.55;;;10.20;99.90;;;;;;5122676;27;20640;-76
2022/02/08 18:22:30;;;;;;;23.30;11.63;;;10.10;99.90;;;;;;5129082;27;20226;-74
2022/02/08 18:25:21;;;;;;;22.50;13.30;;;10.10;99.90;;;;;;5123021;27;20255;-77